sensor_id;sensor_type;location;lat;lon;timestamp;P1;durP1;ratioP1;P2;durP2;ratioP2
77400;SDS011;66855;45.414;11.082;2023-02-18T00:00:16;116.90;;;54.10;;
77400;SDS011;66855;45.414;11.082;2023-02-18T00:02:48;119.40;;;52.80;;
77400;SDS011;66855;45.414;11.082;2023-02-18T00:05:18;119.80;;;54.30;;
77400;SDS011;66855;45.414;11.082;2023-02-18T00:07:44;114.00;;;53.30;;
77400;SDS011;66855;45.414;11.082;2023-02-18T00:10:11;148.50;;;63.70;;
77400;SDS011;66855;45.414;11.082;2023-02-18T00:12:39;138.00;;;67.20;;
77400;SDS011;66855;45.414;11.082;2023-02-18T00:15:05;126.00;;;59.00;;
77400;SDS011;66855;45.414;11.082;2023-02-18T00:17:31;121.90;;;55.20;;
77400;SDS011;66855;45.414;11.082;2023-02-18T00:19:58;124.30;;;55.90;;
77400;SDS011;66855;45.414;11.082;2023-02-18T00:22:24;120.40;;;55.20;;
77400;SDS011;66855;45.414;11.082;2023-02-18T00:24:50;127.40;;;58.00;;
77400;SDS011;66855;45.414;11.082;2023-02-18T00:27:16;120.60;;;54.90;;
77400;SDS011;66855;45.414;11.082;2023-02-18T00:29:43;116.30;;;53.40;;
77400;SDS011;66855;45.414;11.082;2023-02-18T00:32:09;123.00;;;53.90;;
77400;SDS011;66855;45.414;11.082;2023-02-18T00:34:35;110.20;;;49.90;;
77400;SDS011;66855;45.414;11.082;2023-02-18T00:37:02;113.80;;;51.20;;
77400;SDS011;66855;45.414;11.082;2023-02-18T00:39:28;104.40;;;47.50;;
77400;SDS011;66855;45.414;11.082;2023-02-18T00:41:55;90.70;;;43.00;;
77400;SDS011;66855;45.414;11.082;2023-02-18T00:44:22;84.90;;;41.60;;
77400;SDS011;66855;45.414;11.082;2023-02-18T00:46:48;78.30;;;38.70;;
77400;SDS011;66855;45.414;11.082;2023-02-18T00:49:15;89.20;;;42.50;;
77400;SDS011;66855;45.414;11.082;2023-02-18T00:51:42;98.70;;;45.40;;
77400;SDS011;66855;45.414;11.082;2023-02-18T00:54:08;98.00;;;46.60;;
77400;SDS011;66855;45.414;11.082;2023-02-18T00:56:34;93.30;;;45.00;;
77400;SDS011;66855;45.414;11.082;2023-02-18T00:59:01;90.00;;;42.80;;
77400;SDS011;66855;45.414;11.082;2023-02-18T01:01:28;92.20;;;43.60;;
77400;SDS011;66855;45.414;11.082;2023-02-18T01:03:54;95.20;;;44.20;;
77400;SDS011;66855;45.414;11.082;2023-02-18T01:06:21;94.30;;;44.70;;
77400;SDS011;66855;45.414;11.082;2023-02-18T01:08:47;104.20;;;44.60;;
77400;SDS011;66855;45.414;11.082;2023-02-18T01:11:14;100.00;;;45.90;;
77400;SDS011;66855;45.414;11.082;2023-02-18T01:13:40;99.70;;;48.00;;
77400;SDS011;66855;45.414;11.082;2023-02-18T01:16:07;101.70;;;46.30;;
77400;SDS011;66855;45.414;11.082;2023-02-18T01:18:35;107.20;;;49.00;;
77400;SDS011;66855;45.414;11.082;2023-02-18T01:21:03;110.40;;;49.80;;
77400;SDS011;66855;45.414;11.082;2023-02-18T01:23:35;115.00;;;51.60;;
77400;SDS011;66855;45.414;11.082;2023-02-18T01:26:03;102.70;;;48.60;;
77400;SDS011;66855;45.414;11.082;2023-02-18T01:28:29;95.70;;;46.20;;
77400;SDS011;66855;45.414;11.082;2023-02-18T01:30:55;102.10;;;48.00;;
77400;SDS011;66855;45.414;11.082;2023-02-18T01:33:24;110.80;;;50.50;;
77400;SDS011;66855;45.414;11.082;2023-02-18T01:35:51;106.80;;;51.10;;
77400;SDS011;66855;45.414;11.082;2023-02-18T01:38:17;112.40;;;52.50;;
77400;SDS011;66855;45.414;11.082;2023-02-18T01:40:45;104.90;;;50.00;;
77400;SDS011;66855;45.414;11.082;2023-02-18T01:43:13;102.70;;;47.90;;
77400;SDS011;66855;45.414;11.082;2023-02-18T01:51:18;101.60;;;45.60;;
77400;SDS011;66855;45.414;11.082;2023-02-18T01:56:23;106.80;;;47.50;;
77400;SDS011;66855;45.414;11.082;2023-02-18T01:58:53;94.40;;;45.70;;
77400;SDS011;66855;45.414;11.082;2023-02-18T02:01:22;103.70;;;46.80;;
77400;SDS011;66855;45.414;11.082;2023-02-18T02:03:48;107.40;;;51.00;;
77400;SDS011;66855;45.414;11.082;2023-02-18T02:06:16;104.60;;;48.40;;
77400;SDS011;66855;45.414;11.082;2023-02-18T02:08:48;100.30;;;47.40;;
77400;SDS011;66855;45.414;11.082;2023-02-18T02:11:20;95.00;;;46.10;;
77400;SDS011;66855;45.414;11.082;2023-02-18T02:20:23;98.40;;;48.20;;
77400;SDS011;66855;45.414;11.082;2023-02-18T02:40:43;114.60;;;52.00;;
77400;SDS011;66855;45.414;11.082;2023-02-18T02:43:24;118.70;;;52.20;;
77400;SDS011;66855;45.414;11.082;2023-02-18T02:46:10;123.70;;;54.20;;
77400;SDS011;66855;45.414;11.082;2023-02-18T02:48:45;121.40;;;52.90;;
77400;SDS011;66855;45.414;11.082;2023-02-18T02:51:59;118.40;;;52.40;;
77400;SDS011;66855;45.414;11.082;2023-02-18T02:54:30;111.60;;;49.90;;
77400;SDS011;66855;45.414;11.082;2023-02-18T02:57:04;105.30;;;48.50;;
77400;SDS011;66855;45.414;11.082;2023-02-18T02:59:30;86.90;;;42.30;;
77400;SDS011;66855;45.414;11.082;2023-02-18T03:02:04;90.70;;;43.70;;
77400;SDS011;66855;45.414;11.082;2023-02-18T03:13:01;93.30;;;43.20;;
77400;SDS011;66855;45.414;11.082;2023-02-18T03:15:37;85.60;;;42.00;;
77400;SDS011;66855;45.414;11.082;2023-02-18T03:21:11;96.50;;;43.90;;
77400;SDS011;66855;45.414;11.082;2023-02-18T03:23:45;94.30;;;44.30;;
77400;SDS011;66855;45.414;11.082;2023-02-18T03:26:15;108.10;;;47.10;;
77400;SDS011;66855;45.414;11.082;2023-02-18T03:28:43;95.20;;;43.90;;
77400;SDS011;66855;45.414;11.082;2023-02-18T03:31:15;83.90;;;41.10;;
77400;SDS011;66855;45.414;11.082;2023-02-18T03:33:54;89.00;;;41.20;;
77400;SDS011;66855;45.414;11.082;2023-02-18T03:36:24;86.20;;;40.40;;
77400;SDS011;66855;45.414;11.082;2023-02-18T03:38:55;93.40;;;42.70;;
77400;SDS011;66855;45.414;11.082;2023-02-18T03:41:23;84.60;;;40.40;;
77400;SDS011;66855;45.414;11.082;2023-02-18T03:43:53;93.00;;;43.70;;
77400;SDS011;66855;45.414;11.082;2023-02-18T03:46:26;84.00;;;41.60;;
77400;SDS011;66855;45.414;11.082;2023-02-18T03:48:53;77.40;;;38.40;;
77400;SDS011;66855;45.414;11.082;2023-02-18T03:51:20;82.60;;;41.20;;
77400;SDS011;66855;45.414;11.082;2023-02-18T03:53:46;89.90;;;42.60;;
77400;SDS011;66855;45.414;11.082;2023-02-18T03:56:13;83.60;;;40.90;;
77400;SDS011;66855;45.414;11.082;2023-02-18T03:58:39;90.10;;;44.20;;
77400;SDS011;66855;45.414;11.082;2023-02-18T04:01:05;87.40;;;41.90;;
77400;SDS011;66855;45.414;11.082;2023-02-18T04:03:32;86.70;;;41.00;;
77400;SDS011;66855;45.414;11.082;2023-02-18T04:05:58;85.20;;;41.00;;
77400;SDS011;66855;45.414;11.082;2023-02-18T04:08:24;80.10;;;40.00;;
77400;SDS011;66855;45.414;11.082;2023-02-18T04:10:51;79.70;;;40.10;;
77400;SDS011;66855;45.414;11.082;2023-02-18T04:13:17;77.70;;;38.40;;
77400;SDS011;66855;45.414;11.082;2023-02-18T04:15:44;87.50;;;40.70;;
77400;SDS011;66855;45.414;11.082;2023-02-18T04:18:11;90.20;;;43.20;;
77400;SDS011;66855;45.414;11.082;2023-02-18T04:20:37;89.80;;;42.40;;
77400;SDS011;66855;45.414;11.082;2023-02-18T04:23:04;89.30;;;43.60;;
77400;SDS011;66855;45.414;11.082;2023-02-18T04:25:30;89.50;;;42.40;;
77400;SDS011;66855;45.414;11.082;2023-02-18T04:27:56;85.90;;;42.60;;
77400;SDS011;66855;45.414;11.082;2023-02-18T04:30:23;79.80;;;39.90;;
77400;SDS011;66855;45.414;11.082;2023-02-18T04:32:49;84.00;;;41.40;;
77400;SDS011;66855;45.414;11.082;2023-02-18T04:35:16;79.30;;;40.60;;
77400;SDS011;66855;45.414;11.082;2023-02-18T04:37:43;81.80;;;41.70;;
77400;SDS011;66855;45.414;11.082;2023-02-18T04:40:09;79.50;;;39.40;;
77400;SDS011;66855;45.414;11.082;2023-02-18T04:42:36;73.30;;;37.30;;
77400;SDS011;66855;45.414;11.082;2023-02-18T04:45:03;70.30;;;36.90;;
77400;SDS011;66855;45.414;11.082;2023-02-18T04:47:29;76.70;;;36.60;;
77400;SDS011;66855;45.414;11.082;2023-02-18T04:49:55;77.50;;;37.80;;
77400;SDS011;66855;45.414;11.082;2023-02-18T04:52:21;82.30;;;40.60;;
77400;SDS011;66855;45.414;11.082;2023-02-18T04:54:48;81.60;;;39.90;;
77400;SDS011;66855;45.414;11.082;2023-02-18T04:57:14;80.50;;;39.80;;
77400;SDS011;66855;45.414;11.082;2023-02-18T04:59:40;72.40;;;36.60;;
77400;SDS011;66855;45.414;11.082;2023-02-18T05:02:08;73.50;;;37.40;;
77400;SDS011;66855;45.414;11.082;2023-02-18T05:04:37;80.00;;;39.80;;
77400;SDS011;66855;45.414;11.082;2023-02-18T05:07:04;77.70;;;36.80;;
77400;SDS011;66855;45.414;11.082;2023-02-18T05:09:30;86.70;;;43.10;;
77400;SDS011;66855;45.414;11.082;2023-02-18T05:11:56;76.10;;;39.60;;
77400;SDS011;66855;45.414;11.082;2023-02-18T05:14:22;73.50;;;37.50;;
77400;SDS011;66855;45.414;11.082;2023-02-18T05:16:48;73.30;;;38.00;;
77400;SDS011;66855;45.414;11.082;2023-02-18T05:19:14;78.10;;;39.20;;
77400;SDS011;66855;45.414;11.082;2023-02-18T05:21:41;76.80;;;37.90;;
77400;SDS011;66855;45.414;11.082;2023-02-18T05:24:08;70.30;;;35.10;;
77400;SDS011;66855;45.414;11.082;2023-02-18T05:26:34;72.50;;;35.80;;
77400;SDS011;66855;45.414;11.082;2023-02-18T05:29:01;77.40;;;38.00;;
77400;SDS011;66855;45.414;11.082;2023-02-18T05:31:28;82.50;;;39.10;;
77400;SDS011;66855;45.414;11.082;2023-02-18T05:33:54;81.00;;;40.90;;
77400;SDS011;66855;45.414;11.082;2023-02-18T05:36:21;74.30;;;38.20;;
77400;SDS011;66855;45.414;11.082;2023-02-18T05:38:46;77.10;;;38.50;;
77400;SDS011;66855;45.414;11.082;2023-02-18T05:41:12;83.20;;;40.20;;
77400;SDS011;66855;45.414;11.082;2023-02-18T05:43:39;80.50;;;40.60;;
77400;SDS011;66855;45.414;11.082;2023-02-18T05:46:23;73.00;;;36.20;;
77400;SDS011;66855;45.414;11.082;2023-02-18T05:48:49;67.60;;;32.80;;
77400;SDS011;66855;45.414;11.082;2023-02-18T05:51:16;66.00;;;32.50;;
77400;SDS011;66855;45.414;11.082;2023-02-18T05:53:42;85.20;;;41.00;;
77400;SDS011;66855;45.414;11.082;2023-02-18T05:56:08;81.20;;;40.00;;
77400;SDS011;66855;45.414;11.082;2023-02-18T05:58:35;76.10;;;38.70;;
77400;SDS011;66855;45.414;11.082;2023-02-18T06:01:01;70.50;;;35.60;;
77400;SDS011;66855;45.414;11.082;2023-02-18T06:03:27;68.80;;;35.60;;
77400;SDS011;66855;45.414;11.082;2023-02-18T06:05:53;61.00;;;31.20;;
77400;SDS011;66855;45.414;11.082;2023-02-18T06:08:19;57.50;;;30.00;;
77400;SDS011;66855;45.414;11.082;2023-02-18T06:10:45;64.50;;;34.50;;
77400;SDS011;66855;45.414;11.082;2023-02-18T06:13:12;66.40;;;33.20;;
77400;SDS011;66855;45.414;11.082;2023-02-18T06:15:38;85.80;;;41.10;;
77400;SDS011;66855;45.414;11.082;2023-02-18T06:18:05;82.90;;;40.10;;
77400;SDS011;66855;45.414;11.082;2023-02-18T06:20:31;84.40;;;39.80;;
77400;SDS011;66855;45.414;11.082;2023-02-18T06:22:57;62.00;;;32.30;;
77400;SDS011;66855;45.414;11.082;2023-02-18T06:25:24;53.50;;;28.10;;
77400;SDS011;66855;45.414;11.082;2023-02-18T06:27:50;63.40;;;32.00;;
77400;SDS011;66855;45.414;11.082;2023-02-18T06:30:16;73.90;;;35.60;;
77400;SDS011;66855;45.414;11.082;2023-02-18T06:32:42;66.60;;;31.10;;
77400;SDS011;66855;45.414;11.082;2023-02-18T06:35:08;94.00;;;44.50;;
77400;SDS011;66855;45.414;11.082;2023-02-18T06:37:35;98.90;;;43.80;;
77400;SDS011;66855;45.414;11.082;2023-02-18T06:40:01;85.90;;;40.00;;
77400;SDS011;66855;45.414;11.082;2023-02-18T06:42:27;80.40;;;40.00;;
77400;SDS011;66855;45.414;11.082;2023-02-18T06:44:53;77.30;;;39.20;;
77400;SDS011;66855;45.414;11.082;2023-02-18T06:47:19;62.60;;;32.10;;
77400;SDS011;66855;45.414;11.082;2023-02-18T06:49:45;66.00;;;32.40;;
77400;SDS011;66855;45.414;11.082;2023-02-18T06:52:11;61.10;;;32.00;;
77400;SDS011;66855;45.414;11.082;2023-02-18T06:54:37;61.30;;;27.60;;
77400;SDS011;66855;45.414;11.082;2023-02-18T06:57:03;81.40;;;38.80;;
77400;SDS011;66855;45.414;11.082;2023-02-18T06:59:30;76.90;;;37.10;;
77400;SDS011;66855;45.414;11.082;2023-02-18T07:01:56;77.10;;;38.50;;
77400;SDS011;66855;45.414;11.082;2023-02-18T07:04:22;75.80;;;38.10;;
77400;SDS011;66855;45.414;11.082;2023-02-18T07:06:48;61.00;;;33.00;;
77400;SDS011;66855;45.414;11.082;2023-02-18T07:09:14;72.00;;;37.80;;
77400;SDS011;66855;45.414;11.082;2023-02-18T07:11:40;61.30;;;29.80;;
77400;SDS011;66855;45.414;11.082;2023-02-18T07:14:06;51.60;;;27.10;;
77400;SDS011;66855;45.414;11.082;2023-02-18T07:16:33;61.80;;;31.10;;
77400;SDS011;66855;45.414;11.082;2023-02-18T07:18:59;81.50;;;39.10;;
77400;SDS011;66855;45.414;11.082;2023-02-18T07:21:25;87.70;;;41.60;;
77400;SDS011;66855;45.414;11.082;2023-02-18T07:23:51;76.50;;;37.70;;
77400;SDS011;66855;45.414;11.082;2023-02-18T07:26:17;77.00;;;38.90;;
77400;SDS011;66855;45.414;11.082;2023-02-18T07:28:44;79.70;;;38.80;;
77400;SDS011;66855;45.414;11.082;2023-02-18T07:31:10;49.10;;;24.90;;
77400;SDS011;66855;45.414;11.082;2023-02-18T07:33:36;70.30;;;37.20;;
77400;SDS011;66855;45.414;11.082;2023-02-18T07:36:02;74.10;;;36.80;;
77400;SDS011;66855;45.414;11.082;2023-02-18T07:38:29;76.80;;;38.00;;
77400;SDS011;66855;45.414;11.082;2023-02-18T07:40:56;80.40;;;39.30;;
77400;SDS011;66855;45.414;11.082;2023-02-18T07:43:23;74.40;;;39.10;;
77400;SDS011;66855;45.414;11.082;2023-02-18T07:45:49;77.50;;;40.00;;
77400;SDS011;66855;45.414;11.082;2023-02-18T07:48:15;74.30;;;38.00;;
77400;SDS011;66855;45.414;11.082;2023-02-18T07:50:42;69.60;;;34.10;;
77400;SDS011;66855;45.414;11.082;2023-02-18T07:53:11;68.40;;;34.00;;
77400;SDS011;66855;45.414;11.082;2023-02-18T07:55:37;69.30;;;33.50;;
77400;SDS011;66855;45.414;11.082;2023-02-18T08:00:46;88.30;;;43.60;;
77400;SDS011;66855;45.414;11.082;2023-02-18T08:03:15;89.40;;;44.30;;
77400;SDS011;66855;45.414;11.082;2023-02-18T08:05:42;99.60;;;47.00;;
77400;SDS011;66855;45.414;11.082;2023-02-18T08:08:11;105.80;;;48.60;;
77400;SDS011;66855;45.414;11.082;2023-02-18T08:10:38;100.30;;;47.80;;
77400;SDS011;66855;45.414;11.082;2023-02-18T08:13:05;112.60;;;51.80;;
77400;SDS011;66855;45.414;11.082;2023-02-18T08:15:31;117.80;;;50.50;;
77400;SDS011;66855;45.414;11.082;2023-02-18T08:17:57;115.80;;;50.50;;
77400;SDS011;66855;45.414;11.082;2023-02-18T08:20:23;114.00;;;51.70;;
77400;SDS011;66855;45.414;11.082;2023-02-18T08:22:49;127.60;;;58.30;;
77400;SDS011;66855;45.414;11.082;2023-02-18T08:25:15;119.70;;;55.30;;
77400;SDS011;66855;45.414;11.082;2023-02-18T08:27:55;113.80;;;52.60;;
77400;SDS011;66855;45.414;11.082;2023-02-18T08:30:21;114.10;;;50.80;;
77400;SDS011;66855;45.414;11.082;2023-02-18T08:32:47;111.40;;;50.80;;
77400;SDS011;66855;45.414;11.082;2023-02-18T08:35:13;113.60;;;49.90;;
77400;SDS011;66855;45.414;11.082;2023-02-18T08:37:39;109.10;;;48.90;;
77400;SDS011;66855;45.414;11.082;2023-02-18T08:40:20;110.70;;;50.40;;
77400;SDS011;66855;45.414;11.082;2023-02-18T08:42:46;102.50;;;50.10;;
77400;SDS011;66855;45.414;11.082;2023-02-18T08:45:12;95.40;;;44.60;;
77400;SDS011;66855;45.414;11.082;2023-02-18T08:47:38;91.60;;;43.10;;
77400;SDS011;66855;45.414;11.082;2023-02-18T08:50:29;111.40;;;49.40;;
77400;SDS011;66855;45.414;11.082;2023-02-18T08:52:55;111.40;;;48.10;;
77400;SDS011;66855;45.414;11.082;2023-02-18T08:55:22;110.30;;;48.70;;
77400;SDS011;66855;45.414;11.082;2023-02-18T08:57:49;115.50;;;50.10;;
77400;SDS011;66855;45.414;11.082;2023-02-18T09:00:16;110.50;;;50.60;;
77400;SDS011;66855;45.414;11.082;2023-02-18T09:02:42;124.20;;;52.60;;
77400;SDS011;66855;45.414;11.082;2023-02-18T09:05:09;130.40;;;58.80;;
77400;SDS011;66855;45.414;11.082;2023-02-18T09:07:36;123.60;;;55.10;;
77400;SDS011;66855;45.414;11.082;2023-02-18T09:10:03;152.30;;;65.50;;
77400;SDS011;66855;45.414;11.082;2023-02-18T09:12:29;127.10;;;56.10;;
77400;SDS011;66855;45.414;11.082;2023-02-18T09:14:55;107.00;;;49.20;;
77400;SDS011;66855;45.414;11.082;2023-02-18T09:17:22;106.10;;;48.00;;
77400;SDS011;66855;45.414;11.082;2023-02-18T09:19:48;100.10;;;44.80;;
77400;SDS011;66855;45.414;11.082;2023-02-18T09:22:14;110.40;;;50.40;;
77400;SDS011;66855;45.414;11.082;2023-02-18T09:24:40;90.60;;;42.10;;
77400;SDS011;66855;45.414;11.082;2023-02-18T09:27:07;101.90;;;46.10;;
77400;SDS011;66855;45.414;11.082;2023-02-18T09:29:40;94.90;;;42.60;;
77400;SDS011;66855;45.414;11.082;2023-02-18T09:32:08;107.10;;;49.40;;
77400;SDS011;66855;45.414;11.082;2023-02-18T09:34:36;108.20;;;49.20;;
77400;SDS011;66855;45.414;11.082;2023-02-18T09:37:05;98.50;;;45.70;;
77400;SDS011;66855;45.414;11.082;2023-02-18T09:39:32;84.80;;;40.10;;
77400;SDS011;66855;45.414;11.082;2023-02-18T09:42:00;93.60;;;43.20;;
77400;SDS011;66855;45.414;11.082;2023-02-18T09:44:29;86.40;;;38.40;;
77400;SDS011;66855;45.414;11.082;2023-02-18T09:49:46;109.70;;;48.20;;
77400;SDS011;66855;45.414;11.082;2023-02-18T09:52:25;108.20;;;49.60;;
77400;SDS011;66855;45.414;11.082;2023-02-18T09:54:54;110.80;;;49.40;;
77400;SDS011;66855;45.414;11.082;2023-02-18T09:57:26;110.20;;;50.20;;
77400;SDS011;66855;45.414;11.082;2023-02-18T10:00:03;126.40;;;54.00;;
77400;SDS011;66855;45.414;11.082;2023-02-18T10:02:38;117.80;;;49.10;;
77400;SDS011;66855;45.414;11.082;2023-02-18T10:05:05;113.40;;;50.60;;
77400;SDS011;66855;45.414;11.082;2023-02-18T10:07:33;118.00;;;54.30;;
77400;SDS011;66855;45.414;11.082;2023-02-18T10:12:52;99.30;;;45.10;;
77400;SDS011;66855;45.414;11.082;2023-02-18T10:15:20;96.60;;;43.70;;
77400;SDS011;66855;45.414;11.082;2023-02-18T10:17:48;102.10;;;46.00;;
77400;SDS011;66855;45.414;11.082;2023-02-18T10:20:15;95.10;;;42.00;;
77400;SDS011;66855;45.414;11.082;2023-02-18T10:22:45;113.20;;;50.50;;
77400;SDS011;66855;45.414;11.082;2023-02-18T10:25:16;110.70;;;47.40;;
77400;SDS011;66855;45.414;11.082;2023-02-18T10:27:46;99.40;;;46.30;;
77400;SDS011;66855;45.414;11.082;2023-02-18T10:32:40;109.50;;;50.80;;
77400;SDS011;66855;45.414;11.082;2023-02-18T10:45:28;121.40;;;54.00;;
77400;SDS011;66855;45.414;11.082;2023-02-18T10:50:37;118.10;;;51.40;;
77400;SDS011;66855;45.414;11.082;2023-02-18T10:53:19;120.90;;;52.20;;
77400;SDS011;66855;45.414;11.082;2023-02-18T10:55:56;126.40;;;53.40;;
77400;SDS011;66855;45.414;11.082;2023-02-18T11:01:03;122.00;;;51.70;;
77400;SDS011;66855;45.414;11.082;2023-02-18T11:03:40;129.30;;;55.30;;
77400;SDS011;66855;45.414;11.082;2023-02-18T11:06:18;124.60;;;51.50;;
77400;SDS011;66855;45.414;11.082;2023-02-18T11:12:05;123.40;;;53.70;;
77400;SDS011;66855;45.414;11.082;2023-02-18T11:14:40;127.00;;;54.70;;
77400;SDS011;66855;45.414;11.082;2023-02-18T11:17:53;138.50;;;55.40;;
77400;SDS011;66855;45.414;11.082;2023-02-18T11:20:04;128.30;;;52.90;;
77400;SDS011;66855;45.414;11.082;2023-02-18T11:22:47;122.20;;;52.50;;
77400;SDS011;66855;45.414;11.082;2023-02-18T11:25:26;119.30;;;53.40;;
77400;SDS011;66855;45.414;11.082;2023-02-18T11:27:59;124.90;;;52.80;;
77400;SDS011;66855;45.414;11.082;2023-02-18T11:30:34;112.40;;;51.40;;
77400;SDS011;66855;45.414;11.082;2023-02-18T11:35:34;119.70;;;52.70;;
77400;SDS011;66855;45.414;11.082;2023-02-18T11:38:01;127.30;;;53.80;;
77400;SDS011;66855;45.414;11.082;2023-02-18T11:40:32;123.00;;;54.30;;
77400;SDS011;66855;45.414;11.082;2023-02-18T11:43:15;114.00;;;50.20;;
77400;SDS011;66855;45.414;11.082;2023-02-18T11:45:42;111.90;;;50.70;;
77400;SDS011;66855;45.414;11.082;2023-02-18T11:48:18;119.60;;;52.90;;
77400;SDS011;66855;45.414;11.082;2023-02-18T11:50:51;119.30;;;49.90;;
77400;SDS011;66855;45.414;11.082;2023-02-18T11:53:26;132.40;;;53.30;;
77400;SDS011;66855;45.414;11.082;2023-02-18T11:55:53;123.60;;;54.20;;
77400;SDS011;66855;45.414;11.082;2023-02-18T11:58:21;129.60;;;53.30;;
77400;SDS011;66855;45.414;11.082;2023-02-18T12:00:48;124.70;;;52.10;;
77400;SDS011;66855;45.414;11.082;2023-02-18T12:06:12;123.00;;;51.40;;
77400;SDS011;66855;45.414;11.082;2023-02-18T12:08:47;120.50;;;52.60;;
77400;SDS011;66855;45.414;11.082;2023-02-18T12:11:21;125.30;;;52.90;;
77400;SDS011;66855;45.414;11.082;2023-02-18T12:13:57;123.50;;;51.90;;
77400;SDS011;66855;45.414;11.082;2023-02-18T18:49:13;138.40;;;55.00;;
77400;SDS011;66855;45.414;11.082;2023-02-18T18:51:40;138.10;;;52.80;;
77400;SDS011;66855;45.414;11.082;2023-02-18T18:56:58;135.60;;;55.40;;
77400;SDS011;66855;45.414;11.082;2023-02-18T18:59:24;128.20;;;53.10;;
77400;SDS011;66855;45.414;11.082;2023-02-18T19:01:50;136.30;;;57.00;;
77400;SDS011;66855;45.414;11.082;2023-02-18T19:04:26;139.00;;;55.50;;
77400;SDS011;66855;45.414;11.082;2023-02-18T19:06:52;134.40;;;55.90;;
77400;SDS011;66855;45.414;11.082;2023-02-18T19:09:19;132.40;;;53.40;;
77400;SDS011;66855;45.414;11.082;2023-02-18T19:11:45;132.60;;;55.20;;
77400;SDS011;66855;45.414;11.082;2023-02-18T19:14:12;137.30;;;56.90;;
77400;SDS011;66855;45.414;11.082;2023-02-18T19:16:39;135.80;;;56.90;;
77400;SDS011;66855;45.414;11.082;2023-02-18T19:19:08;134.20;;;56.00;;
77400;SDS011;66855;45.414;11.082;2023-02-18T19:21:37;131.20;;;51.20;;
77400;SDS011;66855;45.414;11.082;2023-02-18T19:24:08;131.70;;;54.10;;
77400;SDS011;66855;45.414;11.082;2023-02-18T19:26:44;133.90;;;54.80;;
77400;SDS011;66855;45.414;11.082;2023-02-18T19:29:12;137.40;;;54.90;;
77400;SDS011;66855;45.414;11.082;2023-02-18T19:31:38;131.40;;;54.50;;
77400;SDS011;66855;45.414;11.082;2023-02-18T19:34:04;139.50;;;54.60;;
77400;SDS011;66855;45.414;11.082;2023-02-18T19:36:31;138.60;;;57.20;;
77400;SDS011;66855;45.414;11.082;2023-02-18T19:38:57;139.20;;;57.10;;
77400;SDS011;66855;45.414;11.082;2023-02-18T19:41:23;141.50;;;56.80;;
77400;SDS011;66855;45.414;11.082;2023-02-18T19:43:49;133.00;;;54.20;;
77400;SDS011;66855;45.414;11.082;2023-02-18T19:46:16;141.00;;;55.70;;
77400;SDS011;66855;45.414;11.082;2023-02-18T19:48:47;151.50;;;60.10;;
77400;SDS011;66855;45.414;11.082;2023-02-18T19:51:15;142.30;;;58.80;;
77400;SDS011;66855;45.414;11.082;2023-02-18T19:53:41;141.40;;;56.70;;
77400;SDS011;66855;45.414;11.082;2023-02-18T19:56:07;135.00;;;55.80;;
77400;SDS011;66855;45.414;11.082;2023-02-18T19:58:34;134.60;;;56.50;;
77400;SDS011;66855;45.414;11.082;2023-02-18T20:01:01;137.50;;;54.50;;
77400;SDS011;66855;45.414;11.082;2023-02-18T20:03:27;143.70;;;58.00;;
77400;SDS011;66855;45.414;11.082;2023-02-18T20:05:54;137.10;;;57.20;;
77400;SDS011;66855;45.414;11.082;2023-02-18T20:08:20;139.80;;;56.60;;
77400;SDS011;66855;45.414;11.082;2023-02-18T20:10:54;139.80;;;53.40;;
77400;SDS011;66855;45.414;11.082;2023-02-18T20:13:24;143.00;;;54.90;;
77400;SDS011;66855;45.414;11.082;2023-02-18T20:15:50;143.30;;;56.00;;
77400;SDS011;66855;45.414;11.082;2023-02-18T20:18:16;131.40;;;55.20;;
77400;SDS011;66855;45.414;11.082;2023-02-18T20:20:49;139.80;;;56.00;;
77400;SDS011;66855;45.414;11.082;2023-02-18T20:23:15;141.70;;;56.30;;
77400;SDS011;66855;45.414;11.082;2023-02-18T20:25:42;135.10;;;54.80;;
77400;SDS011;66855;45.414;11.082;2023-02-18T20:28:08;136.10;;;57.20;;
77400;SDS011;66855;45.414;11.082;2023-02-18T20:30:34;136.50;;;54.30;;
77400;SDS011;66855;45.414;11.082;2023-02-18T20:33:01;141.40;;;55.60;;
77400;SDS011;66855;45.414;11.082;2023-02-18T20:35:27;150.30;;;58.10;;
77400;SDS011;66855;45.414;11.082;2023-02-18T20:37:54;154.50;;;58.60;;
77400;SDS011;66855;45.414;11.082;2023-02-18T20:40:20;141.50;;;55.30;;
77400;SDS011;66855;45.414;11.082;2023-02-18T20:42:47;143.40;;;57.30;;
77400;SDS011;66855;45.414;11.082;2023-02-18T20:45:15;149.50;;;59.20;;
77400;SDS011;66855;45.414;11.082;2023-02-18T20:47:42;141.70;;;56.10;;
77400;SDS011;66855;45.414;11.082;2023-02-18T20:50:08;136.60;;;55.50;;
77400;SDS011;66855;45.414;11.082;2023-02-18T20:52:34;131.10;;;53.00;;
77400;SDS011;66855;45.414;11.082;2023-02-18T20:55:01;139.60;;;58.20;;
77400;SDS011;66855;45.414;11.082;2023-02-18T20:57:27;150.20;;;59.50;;
77400;SDS011;66855;45.414;11.082;2023-02-18T20:59:53;135.80;;;54.60;;
77400;SDS011;66855;45.414;11.082;2023-02-18T21:02:20;124.30;;;52.50;;
77400;SDS011;66855;45.414;11.082;2023-02-18T21:04:47;125.00;;;53.30;;
77400;SDS011;66855;45.414;11.082;2023-02-18T21:07:13;133.40;;;53.90;;
77400;SDS011;66855;45.414;11.082;2023-02-18T21:09:39;140.20;;;56.10;;
77400;SDS011;66855;45.414;11.082;2023-02-18T21:12:05;141.70;;;59.30;;
77400;SDS011;66855;45.414;11.082;2023-02-18T21:14:34;139.70;;;55.20;;
77400;SDS011;66855;45.414;11.082;2023-02-18T21:17:00;156.40;;;59.00;;
77400;SDS011;66855;45.414;11.082;2023-02-18T21:19:28;149.20;;;58.60;;
77400;SDS011;66855;45.414;11.082;2023-02-18T21:21:54;136.50;;;55.80;;
77400;SDS011;66855;45.414;11.082;2023-02-18T21:24:21;131.80;;;52.80;;
77400;SDS011;66855;45.414;11.082;2023-02-18T21:26:49;135.00;;;55.80;;
77400;SDS011;66855;45.414;11.082;2023-02-18T21:29:15;136.00;;;56.20;;
77400;SDS011;66855;45.414;11.082;2023-02-18T21:31:44;142.60;;;54.90;;
77400;SDS011;66855;45.414;11.082;2023-02-18T21:34:28;133.30;;;54.30;;
77400;SDS011;66855;45.414;11.082;2023-02-18T21:37:02;132.20;;;53.40;;
77400;SDS011;66855;45.414;11.082;2023-02-18T21:39:29;150.40;;;62.40;;
77400;SDS011;66855;45.414;11.082;2023-02-18T21:41:56;136.00;;;53.30;;
77400;SDS011;66855;45.414;11.082;2023-02-18T21:45:02;138.10;;;56.30;;
77400;SDS011;66855;45.414;11.082;2023-02-18T21:47:53;114.20;;;49.50;;
77400;SDS011;66855;45.414;11.082;2023-02-18T21:50:23;126.90;;;51.90;;
77400;SDS011;66855;45.414;11.082;2023-02-18T21:52:56;111.60;;;47.30;;
77400;SDS011;66855;45.414;11.082;2023-02-18T21:55:22;111.50;;;47.30;;
77400;SDS011;66855;45.414;11.082;2023-02-18T22:00:17;112.50;;;46.60;;
77400;SDS011;66855;45.414;11.082;2023-02-18T22:02:46;124.30;;;51.40;;
77400;SDS011;66855;45.414;11.082;2023-02-18T22:05:12;117.20;;;48.90;;